QFA675 YMML-YPAD
Flight info
| Callsign | QFA675 |
|---|---|
| Flight time | N/A |
| Altitude | 36000 |
| Route | PEDNI1/27 PEDNI H345 AD |
| Aircraft | B738/M-SDE2E3FGHIRWXY/LB1 |
Departure
| Time | N/A |
|---|---|
| Airport | Melbourne Airport (YMML) |
Arrival
| Time | 2026-05-06 21:23 |
|---|---|
| Airport | Adelaide International Airport (YPAD) |
| Time | Latitude | Longitude | Altitude | Speed | Heading |
|---|---|---|---|---|---|
| 2026-05-06 20:30 | -37.36591 | 143.82646 | 24410 ft | 419 kts | 276° |
| 2026-05-06 20:30 | -37.35562 | 143.79242 | 24833 ft | 422 kts | 276° |
| 2026-05-06 20:31 | -37.34516 | 143.75784 | 25263 ft | 425 kts | 276° |
| 2026-05-06 20:31 | -37.33448 | 143.72254 | 25672 ft | 428 kts | 276° |
| 2026-05-06 20:31 | -37.32386 | 143.68748 | 26055 ft | 432 kts | 276° |
| 2026-05-06 20:31 | -37.31326 | 143.65251 | 26435 ft | 435 kts | 277° |
| 2026-05-06 20:32 | -37.30249 | 143.61704 | 26836 ft | 437 kts | 277° |
| 2026-05-06 20:32 | -37.29159 | 143.58119 | 27224 ft | 440 kts | 277° |
| 2026-05-06 20:32 | -37.28058 | 143.54499 | 27598 ft | 443 kts | 277° |
| 2026-05-06 20:32 | -37.26953 | 143.50874 | 27944 ft | 447 kts | 277° |
| 2026-05-06 20:33 | -37.25837 | 143.47217 | 28285 ft | 450 kts | 277° |
| 2026-05-06 20:33 | -37.24719 | 143.43559 | 28653 ft | 453 kts | 278° |
| 2026-05-06 20:33 | -37.23584 | 143.39849 | 28975 ft | 456 kts | 278° |
| 2026-05-06 20:33 | -37.22443 | 143.36127 | 29312 ft | 459 kts | 278° |
| 2026-05-06 20:34 | -37.21290 | 143.32367 | 29641 ft | 462 kts | 278° |
| 2026-05-06 20:34 | -37.20141 | 143.28624 | 29960 ft | 465 kts | 278° |
| 2026-05-06 20:34 | -37.18973 | 143.24822 | 30324 ft | 466 kts | 278° |
| 2026-05-06 20:34 | -37.17815 | 143.21039 | 30770 ft | 462 kts | 278° |
| 2026-05-06 20:35 | -37.16666 | 143.17295 | 31434 ft | 454 kts | 279° |
| 2026-05-06 20:35 | -37.15544 | 143.13645 | 32090 ft | 446 kts | 279° |
| 2026-05-06 20:35 | -37.14440 | 143.10046 | 32638 ft | 441 kts | 279° |
| 2026-05-06 20:35 | -37.13346 | 143.06465 | 33106 ft | 438 kts | 280° |
| 2026-05-06 20:36 | -37.12257 | 143.02897 | 33512 ft | 436 kts | 280° |
| 2026-05-06 20:36 | -37.11177 | 142.99364 | 33953 ft | 433 kts | 281° |
| 2026-05-06 20:36 | -37.10101 | 142.95853 | 34410 ft | 429 kts | 281° |
| 2026-05-06 20:36 | -37.09032 | 142.92373 | 34751 ft | 427 kts | 281° |
| 2026-05-06 20:37 | -37.07978 | 142.88941 | 35005 ft | 427 kts | 281° |
| 2026-05-06 20:37 | -37.06896 | 142.85420 | 35244 ft | 428 kts | 281° |
| 2026-05-06 20:37 | -37.05839 | 142.81988 | 35528 ft | 427 kts | 281° |
| 2026-05-06 20:37 | -37.04770 | 142.78528 | 35846 ft | 425 kts | 282° |
| 2026-05-06 20:38 | -37.03703 | 142.75083 | 36162 ft | 423 kts | 282° |
| 2026-05-06 20:38 | -37.02639 | 142.71645 | 36274 ft | 426 kts | 282° |
| 2026-05-06 20:38 | -37.01563 | 142.68164 | 36284 ft | 429 kts | 282° |
| 2026-05-06 20:39 | -36.99398 | 142.61196 | 36275 ft | 427 kts | 282° |
| 2026-05-06 20:39 | -36.97266 | 142.54371 | 36277 ft | 422 kts | 282° |
| 2026-05-06 20:40 | -36.95125 | 142.47509 | 36281 ft | 422 kts | 282° |
| 2026-05-06 20:40 | -36.92987 | 142.40672 | 36294 ft | 422 kts | 282° |
| 2026-05-06 20:41 | -36.90840 | 142.33825 | 36296 ft | 423 kts | 282° |
| 2026-05-06 20:41 | -36.88691 | 142.26991 | 36297 ft | 424 kts | 282° |
| 2026-05-06 20:42 | -36.86542 | 142.20169 | 36302 ft | 425 kts | 282° |
| 2026-05-06 20:42 | -36.84365 | 142.13279 | 36306 ft | 427 kts | 282° |
| 2026-05-06 20:43 | -36.82177 | 142.06371 | 36313 ft | 428 kts | 282° |
| 2026-05-06 20:43 | -36.79970 | 141.99419 | 36309 ft | 430 kts | 282° |
| 2026-05-06 20:44 | -36.77772 | 141.92516 | 36312 ft | 431 kts | 282° |
| 2026-05-06 20:44 | -36.75550 | 141.85551 | 36314 ft | 432 kts | 282° |
| 2026-05-06 20:45 | -36.73324 | 141.78592 | 36315 ft | 433 kts | 283° |
| 2026-05-06 20:45 | -36.71088 | 141.71619 | 36316 ft | 433 kts | 283° |
| 2026-05-06 20:46 | -36.68849 | 141.64651 | 36323 ft | 433 kts | 283° |
| 2026-05-06 20:46 | -36.66617 | 141.57725 | 36321 ft | 433 kts | 283° |
| 2026-05-06 20:47 | -36.64373 | 141.50774 | 36327 ft | 432 kts | 283° |
| 2026-05-06 20:47 | -36.62126 | 141.43831 | 36321 ft | 432 kts | 283° |
| 2026-05-06 20:48 | -36.59877 | 141.36899 | 36342 ft | 432 kts | 283° |
| 2026-05-06 20:48 | -36.57624 | 141.29968 | 36335 ft | 432 kts | 283° |
| 2026-05-06 20:49 | -36.55365 | 141.23037 | 36337 ft | 432 kts | 283° |
| 2026-05-06 20:49 | -36.53098 | 141.16097 | 36342 ft | 432 kts | 283° |
| 2026-05-06 20:50 | -36.50839 | 141.09198 | 36345 ft | 433 kts | 283° |
| 2026-05-06 20:50 | -36.48554 | 141.02235 | 36348 ft | 433 kts | 284° |
| 2026-05-06 20:51 | -36.46285 | 140.95339 | 36350 ft | 433 kts | 284° |
| 2026-05-06 20:51 | -36.44024 | 140.88492 | 36338 ft | 425 kts | 284° |
| 2026-05-06 20:52 | -36.41787 | 140.81713 | 36323 ft | 423 kts | 284° |
| 2026-05-06 20:52 | -36.40669 | 140.78330 | 35983 ft | 424 kts | 284° |
| 2026-05-06 20:52 | -36.39502 | 140.74995 | 35706 ft | 421 kts | 289° |
| 2026-05-06 20:52 | -36.37961 | 140.71869 | 35297 ft | 429 kts | 299° |
| 2026-05-06 20:53 | -36.36134 | 140.68946 | 34941 ft | 427 kts | 300° |
| 2026-05-06 20:53 | -36.34276 | 140.66076 | 34538 ft | 426 kts | 300° |
| 2026-05-06 20:53 | -36.32425 | 140.63228 | 34140 ft | 424 kts | 300° |
| 2026-05-06 20:53 | -36.31179 | 140.61303 | 33852 ft | 422 kts | 300° |
| 2026-05-06 20:54 | -36.25370 | 140.52217 | 32623 ft | 413 kts | 300° |
| 2026-05-06 20:54 | -36.23602 | 140.49432 | 32261 ft | 410 kts | 300° |
| 2026-05-06 20:55 | -36.21845 | 140.46666 | 31907 ft | 408 kts | 300° |
| 2026-05-06 20:55 | -36.20093 | 140.43910 | 31550 ft | 405 kts | 300° |
| 2026-05-06 20:55 | -36.18351 | 140.41172 | 31194 ft | 403 kts | 300° |
| 2026-05-06 20:55 | -36.16618 | 140.38451 | 30842 ft | 401 kts | 300° |
| 2026-05-06 20:56 | -36.14919 | 140.35784 | 30500 ft | 399 kts | 300° |
| 2026-05-06 20:56 | -36.13204 | 140.33095 | 30101 ft | 397 kts | 300° |
| 2026-05-06 20:56 | -36.11495 | 140.30416 | 29695 ft | 394 kts | 300° |
| 2026-05-06 20:56 | -36.09806 | 140.27775 | 29338 ft | 391 kts | 300° |
| 2026-05-06 20:57 | -36.08124 | 140.25147 | 28965 ft | 388 kts | 300° |
| 2026-05-06 20:57 | -36.06451 | 140.22537 | 28595 ft | 385 kts | 300° |
| 2026-05-06 20:57 | -36.04792 | 140.19957 | 28230 ft | 382 kts | 300° |
| 2026-05-06 20:57 | -36.03144 | 140.17396 | 27879 ft | 379 kts | 300° |
| 2026-05-06 20:58 | -36.01505 | 140.14848 | 27523 ft | 376 kts | 300° |
| 2026-05-06 20:58 | -35.99888 | 140.12337 | 27181 ft | 373 kts | 300° |
| 2026-05-06 20:58 | -35.98273 | 140.09828 | 26827 ft | 371 kts | 300° |
| 2026-05-06 20:58 | -35.96677 | 140.07350 | 26485 ft | 368 kts | 300° |
| 2026-05-06 20:59 | -35.95083 | 140.04878 | 26142 ft | 366 kts | 300° |
| 2026-05-06 20:59 | -35.93503 | 140.02427 | 25803 ft | 364 kts | 300° |
| 2026-05-06 20:59 | -35.91946 | 140.00014 | 25462 ft | 362 kts | 300° |
| 2026-05-06 20:59 | -35.90372 | 139.97577 | 25119 ft | 361 kts | 300° |
| 2026-05-06 21:00 | -35.88814 | 139.95166 | 24782 ft | 359 kts | 300° |
| 2026-05-06 21:00 | -35.87258 | 139.92761 | 24445 ft | 357 kts | 300° |
| 2026-05-06 21:00 | -35.85712 | 139.90370 | 24098 ft | 356 kts | 300° |
| 2026-05-06 21:00 | -35.84165 | 139.87982 | 23712 ft | 355 kts | 300° |
| 2026-05-06 21:01 | -35.82627 | 139.85609 | 23333 ft | 353 kts | 300° |
| 2026-05-06 21:01 | -35.81102 | 139.83259 | 22988 ft | 351 kts | 300° |
| 2026-05-06 21:01 | -35.79579 | 139.80913 | 22628 ft | 348 kts | 300° |
| 2026-05-06 21:01 | -35.78070 | 139.78590 | 22293 ft | 346 kts | 300° |
| 2026-05-06 21:02 | -35.76572 | 139.76286 | 21956 ft | 343 kts | 300° |
| 2026-05-06 21:02 | -35.75105 | 139.74031 | 21629 ft | 341 kts | 300° |
| 2026-05-06 21:02 | -35.73629 | 139.71763 | 21303 ft | 338 kts | 300° |
| 2026-05-06 21:02 | -35.72158 | 139.69504 | 20983 ft | 336 kts | 300° |
| 2026-05-06 21:03 | -35.70703 | 139.67271 | 20662 ft | 334 kts | 300° |
| 2026-05-06 21:03 | -35.69249 | 139.65040 | 20351 ft | 332 kts | 300° |
| 2026-05-06 21:03 | -35.67808 | 139.62831 | 20030 ft | 330 kts | 300° |
| 2026-05-06 21:03 | -35.66370 | 139.60629 | 19713 ft | 329 kts | 300° |
| 2026-05-06 21:04 | -35.64944 | 139.58444 | 19394 ft | 328 kts | 300° |
| 2026-05-06 21:04 | -35.63517 | 139.56262 | 19079 ft | 327 kts | 300° |
| 2026-05-06 21:04 | -35.62095 | 139.54086 | 18755 ft | 326 kts | 300° |
| 2026-05-06 21:04 | -35.60677 | 139.51919 | 18408 ft | 324 kts | 300° |
| 2026-05-06 21:05 | -35.59287 | 139.49798 | 18069 ft | 323 kts | 300° |
| 2026-05-06 21:05 | -35.57877 | 139.47647 | 17735 ft | 321 kts | 300° |
| 2026-05-06 21:05 | -35.56478 | 139.45513 | 17425 ft | 319 kts | 300° |
| 2026-05-06 21:05 | -35.55091 | 139.43400 | 17095 ft | 317 kts | 300° |
| 2026-05-06 21:06 | -35.53714 | 139.41302 | 16785 ft | 314 kts | 300° |
| 2026-05-06 21:06 | -35.52365 | 139.39249 | 16480 ft | 312 kts | 300° |
| 2026-05-06 21:06 | -35.50999 | 139.37171 | 16164 ft | 310 kts | 300° |
| 2026-05-06 21:06 | -35.49651 | 139.35121 | 15874 ft | 308 kts | 300° |
| 2026-05-06 21:07 | -35.48311 | 139.33083 | 15579 ft | 306 kts | 300° |
| 2026-05-06 21:07 | -35.46975 | 139.31052 | 15273 ft | 304 kts | 300° |
| 2026-05-06 21:07 | -35.45648 | 139.29037 | 14967 ft | 303 kts | 300° |
| 2026-05-06 21:07 | -35.44327 | 139.27032 | 14671 ft | 301 kts | 300° |
| 2026-05-06 21:08 | -35.43011 | 139.25038 | 14369 ft | 300 kts | 300° |
| 2026-05-06 21:08 | -35.41585 | 139.23139 | 14034 ft | 309 kts | 313° |
| 2026-05-06 21:08 | -35.39820 | 139.21669 | 13808 ft | 313 kts | 320° |
| 2026-05-06 21:08 | -35.37958 | 139.20273 | 13549 ft | 315 kts | 321° |
| 2026-05-06 21:09 | -35.36074 | 139.18885 | 13290 ft | 317 kts | 321° |
| 2026-05-06 21:09 | -35.34177 | 139.17485 | 13019 ft | 317 kts | 321° |
| 2026-05-06 21:09 | -35.32301 | 139.16092 | 12806 ft | 312 kts | 321° |
| 2026-05-06 21:09 | -35.30454 | 139.14714 | 12518 ft | 310 kts | 321° |
| 2026-05-06 21:10 | -35.28618 | 139.13335 | 12224 ft | 308 kts | 321° |
| 2026-05-06 21:10 | -35.26792 | 139.11960 | 11920 ft | 307 kts | 321° |
| 2026-05-06 21:10 | -35.24978 | 139.10591 | 11610 ft | 306 kts | 321° |
| 2026-05-06 21:10 | -35.23187 | 139.09238 | 11313 ft | 305 kts | 321° |
| 2026-05-06 21:11 | -35.21974 | 139.08321 | 11106 ft | 305 kts | 321° |
| 2026-05-06 21:11 | -35.19575 | 139.06508 | 10662 ft | 306 kts | 321° |
| 2026-05-06 21:11 | -35.17741 | 139.05119 | 10173 ft | 312 kts | 321° |
| 2026-05-06 21:11 | -35.16490 | 139.04174 | 9875 ft | 312 kts | 322° |
| 2026-05-06 21:12 | -35.14695 | 139.02827 | 9635 ft | 300 kts | 322° |
| 2026-05-06 21:12 | -35.12904 | 139.01476 | 9256 ft | 302 kts | 322° |
| 2026-05-06 21:12 | -35.11120 | 139.00129 | 8898 ft | 303 kts | 322° |
| 2026-05-06 21:12 | -35.09352 | 138.98796 | 8592 ft | 302 kts | 322° |
| 2026-05-06 21:13 | -35.06962 | 138.96996 | 8159 ft | 301 kts | 322° |
| 2026-05-06 21:13 | -35.05778 | 138.96104 | 7952 ft | 301 kts | 322° |
| 2026-05-06 21:13 | -35.03992 | 138.94761 | 7613 ft | 302 kts | 323° |
| 2026-05-06 21:13 | -35.02210 | 138.93420 | 7288 ft | 298 kts | 323° |
| 2026-05-06 21:14 | -35.00471 | 138.92116 | 6974 ft | 290 kts | 323° |
| 2026-05-06 21:14 | -34.98771 | 138.90842 | 6662 ft | 283 kts | 323° |
| 2026-05-06 21:14 | -34.97096 | 138.89583 | 6372 ft | 282 kts | 323° |
| 2026-05-06 21:14 | -34.95424 | 138.88327 | 6096 ft | 281 kts | 323° |
| 2026-05-06 21:15 | -34.93764 | 138.87080 | 5817 ft | 280 kts | 324° |
| 2026-05-06 21:15 | -34.92110 | 138.85839 | 5543 ft | 278 kts | 324° |
| 2026-05-06 21:15 | -34.90461 | 138.84601 | 5271 ft | 277 kts | 325° |
| 2026-05-06 21:15 | -34.88842 | 138.83388 | 5006 ft | 276 kts | 325° |
| 2026-05-06 21:16 | -34.87207 | 138.82164 | 4719 ft | 275 kts | 325° |
| 2026-05-06 21:16 | -34.85579 | 138.80946 | 4507 ft | 272 kts | 325° |
| 2026-05-06 21:16 | -34.83988 | 138.79758 | 4389 ft | 264 kts | 325° |
| 2026-05-06 21:16 | -34.82456 | 138.78615 | 4255 ft | 252 kts | 325° |
| 2026-05-06 21:17 | -34.81066 | 138.77456 | 4147 ft | 231 kts | 308° |
| 2026-05-06 21:17 | -34.80469 | 138.75845 | 4095 ft | 195 kts | 262° |
| 2026-05-06 21:17 | -34.80869 | 138.74417 | 3980 ft | 172 kts | 232° |
| 2026-05-06 21:17 | -34.81489 | 138.73233 | 3961 ft | 157 kts | 232° |
| 2026-05-06 21:18 | -34.82090 | 138.72083 | 3789 ft | 162 kts | 230° |
| 2026-05-06 21:18 | -34.82736 | 138.70994 | 3574 ft | 160 kts | 227° |
| 2026-05-06 21:18 | -34.83424 | 138.69931 | 3355 ft | 155 kts | 225° |
| 2026-05-06 21:18 | -34.84084 | 138.68945 | 3149 ft | 151 kts | 225° |
| 2026-05-06 21:19 | -34.84751 | 138.67962 | 2944 ft | 150 kts | 225° |
| 2026-05-06 21:19 | -34.85438 | 138.66956 | 2750 ft | 153 kts | 225° |
| 2026-05-06 21:19 | -34.86116 | 138.65962 | 2533 ft | 154 kts | 225° |
| 2026-05-06 21:19 | -34.86799 | 138.64960 | 2314 ft | 153 kts | 225° |
| 2026-05-06 21:20 | -34.87477 | 138.63967 | 2105 ft | 152 kts | 225° |
| 2026-05-06 21:20 | -34.88144 | 138.62988 | 1895 ft | 145 kts | 225° |
| 2026-05-06 21:20 | -34.88775 | 138.62065 | 1727 ft | 143 kts | 226° |
| 2026-05-06 21:20 | -34.89411 | 138.61134 | 1490 ft | 142 kts | 226° |
| 2026-05-06 21:21 | -34.90033 | 138.60224 | 1304 ft | 143 kts | 227° |
| 2026-05-06 21:21 | -34.90675 | 138.59284 | 1089 ft | 144 kts | 227° |
| 2026-05-06 21:21 | -34.91318 | 138.58342 | 885 ft | 146 kts | 228° |
| 2026-05-06 21:21 | -34.91970 | 138.57384 | 713 ft | 147 kts | 229° |
| 2026-05-06 21:22 | -34.92609 | 138.56424 | 571 ft | 143 kts | 229° |
| 2026-05-06 21:22 | -34.93257 | 138.55473 | 277 ft | 147 kts | 226° |
| 2026-05-06 21:22 | -34.93911 | 138.54541 | 68 ft | 144 kts | 226° |
| 2026-05-06 21:22 | -34.94528 | 138.53658 | 23 ft | 123 kts | 229° |
| 2026-05-06 21:23 | -34.94978 | 138.52995 | 22 ft | 80 kts | 230° |
| 2026-05-06 21:23 | -34.95240 | 138.52615 | 19 ft | 38 kts | 230° |
| 2026-05-06 21:23 | -34.95383 | 138.52403 | 21 ft | 13 kts | 230° |
| 2026-05-06 21:23 | -34.95411 | 138.52362 | 22 ft | 7 kts | 235° |
| 2026-05-06 21:24 | -34.95441 | 138.52284 | 22 ft | 13 kts | 265° |
| 2026-05-06 21:24 | -34.95397 | 138.52219 | 23 ft | 9 kts | 320° |
| 2026-05-06 21:24 | -34.95341 | 138.52192 | 25 ft | 9 kts | 354° |
| 2026-05-06 21:24 | -34.95288 | 138.52217 | 25 ft | 8 kts | 41° |
| 2026-05-06 21:25 | -34.95236 | 138.52263 | 22 ft | 10 kts | 34° |
| 2026-05-06 21:25 | -34.95173 | 138.52318 | 21 ft | 12 kts | 36° |
| 2026-05-06 21:25 | -34.95104 | 138.52381 | 23 ft | 12 kts | 39° |
| 2026-05-06 21:25 | -34.95038 | 138.52445 | 21 ft | 13 kts | 38° |
| 2026-05-06 21:26 | -34.94965 | 138.52514 | 20 ft | 14 kts | 37° |
| 2026-05-06 21:26 | -34.94889 | 138.52585 | 22 ft | 13 kts | 37° |
| 2026-05-06 21:26 | -34.94816 | 138.52653 | 24 ft | 13 kts | 38° |
| 2026-05-06 21:26 | -34.94745 | 138.52720 | 24 ft | 14 kts | 37° |
| 2026-05-06 21:27 | -34.94670 | 138.52791 | 24 ft | 13 kts | 38° |
| 2026-05-06 21:27 | -34.94599 | 138.52858 | 26 ft | 13 kts | 38° |
| 2026-05-06 21:27 | -34.94527 | 138.52924 | 27 ft | 14 kts | 36° |
| 2026-05-06 21:27 | -34.94450 | 138.53003 | 25 ft | 13 kts | 62° |
| 2026-05-06 21:28 | -34.94454 | 138.53077 | 25 ft | 7 kts | 92° |
| 2026-05-06 21:28 | -34.94466 | 138.53134 | 28 ft | 7 kts | 117° |
| 2026-05-06 21:28 | -34.94495 | 138.53191 | 26 ft | 9 kts | 123° |
| 2026-05-06 21:29 | -34.94428 | 138.53453 | 19 ft | 14 kts | 49° |
| 2026-05-06 21:29 | -34.94370 | 138.53539 | 21 ft | 13 kts | 51° |
| 2026-05-06 21:29 | -34.94330 | 138.53597 | 20 ft | 4 kts | 50° |
| 2026-05-06 21:30 | -34.94309 | 138.53627 | 20 ft | 5 kts | 50° |
| 2026-05-06 21:30 | -34.94281 | 138.53660 | 20 ft | 6 kts | 30° |
| 2026-05-06 21:30 | -34.94240 | 138.53654 | 21 ft | 6 kts | 325° |
| 2026-05-06 21:30 | -34.94198 | 138.53638 | 22 ft | 7 kts | 5° |
| 2026-05-06 21:31 | -34.94158 | 138.53677 | 26 ft | 9 kts | 50° |
| 2026-05-06 21:31 | -34.94106 | 138.53754 | 25 ft | 14 kts | 51° |
| 2026-05-06 21:31 | -34.94058 | 138.53824 | 29 ft | 8 kts | 50° |
| 2026-05-06 21:31 | -34.94037 | 138.53838 | 28 ft | 2 kts | 341° |
| 2026-05-06 21:32 | -34.94021 | 138.53819 | 27 ft | 5 kts | 319° |
| 2026-05-06 21:32 | -34.93997 | 138.53792 | 26 ft | 1 kts | 317° |
| 2026-05-06 21:32 | -34.93989 | 138.53785 | 27 ft | 1 kts | 322° |
| 2026-05-06 21:33 | -34.93987 | 138.53783 | 27 ft | 0 kts | 322° |
| 2026-05-06 21:33 | -34.93985 | 138.53781 | 27 ft | 0 kts | 327° |